createdAt,value
2018-01-15T00:00:01.209Z,1.21
2018-01-15T00:01:01.178Z,1.19
2018-01-15T00:02:01.114Z,1.21
2018-01-15T00:03:01.075Z,1.32
2018-01-15T00:04:01.054Z,1.19
2018-01-15T00:05:01.007Z,1.15
2018-01-15T00:06:00.963Z,1.22
2018-01-15T00:07:00.879Z,1.18
2018-01-15T00:08:00.838Z,1.21
2018-01-15T00:09:00.789Z,1.18
2018-01-15T00:10:00.753Z,1.25
2018-01-15T00:11:00.689Z,1.28
2018-01-15T00:12:00.680Z,1.24
2018-01-15T00:13:00.605Z,1.16
2018-01-15T00:14:00.561Z,1.10
2018-01-15T00:15:00.509Z,1.14
2018-01-15T00:16:00.471Z,1.08
2018-01-15T00:17:00.403Z,0.97
2018-01-15T00:18:00.361Z,0.88
2018-01-15T00:19:00.339Z,0.88
2018-01-15T00:20:00.312Z,1.00
2018-01-15T00:21:00.243Z,0.94
2018-01-15T00:22:00.180Z,0.89
2018-01-15T00:23:00.134Z,0.71
2018-01-15T00:24:00.103Z,0.70
2018-01-15T00:25:00.060Z,0.68
2018-01-15T00:26:00.017Z,0.64
2018-01-15T00:26:59.966Z,0.61
2018-01-15T00:28:00.036Z,0.53
2018-01-15T00:28:59.836Z,0.39
2018-01-15T00:29:59.825Z,0.25
2018-01-15T00:30:59.767Z,0.18
2018-01-15T00:31:59.718Z,0.25
2018-01-15T00:32:59.681Z,0.16
2018-01-15T00:33:59.635Z,0.15
2018-01-15T00:34:59.580Z,0.03
2018-01-15T00:35:59.548Z,0.02
2018-01-15T00:36:59.515Z,0.09
2018-01-15T00:37:59.424Z,0.13
2018-01-15T00:38:59.374Z,0.12
2018-01-15T00:39:59.324Z,0.23
2018-01-15T00:40:59.288Z,0.23
2018-01-15T00:41:59.229Z,0.20
2018-01-15T00:42:59.217Z,0.12
2018-01-15T00:43:59.159Z,0.03
2018-01-15T00:44:59.095Z,-0.11
2018-01-15T00:45:59.047Z,0.10
2018-01-15T00:46:58.993Z,0.06
2018-01-15T00:47:59.030Z,0.02
2018-01-15T00:48:58.943Z,-0.11
2018-01-15T00:49:58.875Z,0.02
2018-01-15T00:50:58.811Z,0.02
2018-01-15T00:51:58.763Z,-0.06
2018-01-15T00:52:58.716Z,-0.12
2018-01-15T00:53:58.724Z,-0.13
2018-01-15T00:54:58.636Z,-0.30
2018-01-15T00:55:58.583Z,-0.31
2018-01-15T00:56:58.519Z,-0.47
2018-01-15T00:57:58.500Z,-0.39
2018-01-15T00:58:58.428Z,-0.45
2018-01-15T00:59:58.372Z,-0.51
2018-01-15T01:00:58.331Z,-0.37
2018-01-15T01:01:58.292Z,-0.48
2018-01-15T01:02:58.305Z,-0.48
2018-01-15T01:03:58.193Z,-0.37
2018-01-15T01:04:58.146Z,-0.37
2018-01-15T01:05:58.086Z,-0.31
2018-01-15T01:06:58.036Z,-0.50
2018-01-15T01:07:58.006Z,-0.39
2018-01-15T01:08:57.935Z,-0.34
2018-01-15T01:09:57.892Z,-0.47
2018-01-15T01:10:57.836Z,-0.50
2018-01-15T01:11:57.794Z,-0.55
2018-01-15T01:12:57.745Z,-0.62
2018-01-15T01:13:57.700Z,-0.57
2018-01-15T01:14:57.651Z,-0.60
2018-01-15T01:15:57.596Z,-0.68
2018-01-15T01:16:57.575Z,-0.78
2018-01-15T01:17:57.562Z,-0.70
2018-01-15T01:18:57.470Z,-0.84
2018-01-15T01:19:57.428Z,-0.87
2018-01-15T01:20:57.356Z,-0.95
2018-01-15T01:21:57.323Z,-0.94
2018-01-15T01:22:57.263Z,-1.17
2018-01-15T01:23:57.251Z,-1.13
2018-01-15T01:24:57.168Z,-1.07
2018-01-15T01:25:57.132Z,-1.15
2018-01-15T01:26:57.076Z,-1.25
2018-01-15T01:27:57.091Z,-1.30
2018-01-15T01:28:56.984Z,-1.39
2018-01-15T01:29:56.928Z,-1.42
2018-01-15T01:30:56.875Z,-1.25
2018-01-15T01:31:56.860Z,-1.41
2018-01-15T01:32:56.815Z,-1.28
2018-01-15T01:33:56.789Z,-1.46
2018-01-15T01:34:56.778Z,-1.57
2018-01-15T01:35:56.646Z,-1.49
2018-01-15T01:36:56.612Z,-1.60
2018-01-15T01:37:56.621Z,-1.70
2018-01-15T01:38:57.127Z,-1.72
2018-01-15T01:39:56.458Z,-1.77
2018-01-15T01:40:56.429Z,-1.75
2018-01-15T01:41:56.349Z,-1.82
2018-01-15T01:42:56.327Z,-1.80
2018-01-15T01:43:56.249Z,-1.96
2018-01-15T01:44:56.236Z,-1.88
2018-01-15T01:45:56.155Z,-1.99
2018-01-15T01:46:56.098Z,-2.05
2018-01-15T01:47:56.058Z,-2.17
2018-01-15T01:48:56.002Z,-2.18
2018-01-15T01:49:55.954Z,-2.21
2018-01-15T01:50:55.921Z,-2.17
2018-01-15T01:51:55.857Z,-2.18
2018-01-15T01:52:55.814Z,-2.45
2018-01-15T01:53:55.781Z,-2.24
2018-01-15T01:54:55.714Z,-2.32
2018-01-15T01:55:55.681Z,-2.35
2018-01-15T01:56:55.638Z,-2.35
2018-01-15T01:57:55.642Z,-2.13
2018-01-15T01:58:55.536Z,-2.26
2018-01-15T01:59:55.468Z,-2.40
2018-01-15T02:00:55.428Z,-2.45
2018-01-15T02:01:55.383Z,-2.60
2018-01-15T02:02:55.332Z,-2.64
2018-01-15T02:03:55.279Z,-2.63
2018-01-15T02:04:55.293Z,-2.68
2018-01-15T02:05:55.224Z,-2.48
2018-01-15T02:06:55.127Z,-2.63
2018-01-15T02:07:55.092Z,-2.75
2018-01-15T02:08:55.025Z,-2.66
2018-01-15T02:09:54.996Z,-2.60
2018-01-15T02:10:54.942Z,-2.45
2018-01-15T02:11:54.882Z,-2.45
2018-01-15T02:12:54.859Z,-2.48
2018-01-15T02:13:54.781Z,-2.64
2018-01-15T02:14:54.728Z,-2.76
2018-01-15T02:15:54.693Z,-2.82
2018-01-15T02:16:54.664Z,-2.90
2018-01-15T02:17:54.625Z,-3.02
2018-01-15T02:18:54.539Z,-3.07
2018-01-15T02:19:54.512Z,-3.08
2018-01-15T02:20:54.462Z,-2.99
2018-01-15T02:21:54.417Z,-2.82
2018-01-15T02:22:54.359Z,-2.87
2018-01-15T02:23:54.313Z,-2.96
2018-01-15T02:24:54.247Z,-2.97
2018-01-15T02:25:54.235Z,-3.04
2018-01-15T02:26:54.190Z,-2.93
2018-01-15T02:27:54.123Z,-2.86
2018-01-15T02:28:54.083Z,-2.74
2018-01-15T02:29:53.999Z,-2.94
2018-01-15T02:30:53.987Z,-2.92
2018-01-15T02:31:53.894Z,-2.90
2018-01-15T02:32:53.850Z,-2.92
2018-01-15T02:33:53.797Z,-2.92
2018-01-15T02:34:53.750Z,-2.82
2018-01-15T02:35:53.699Z,-2.86
2018-01-15T02:36:53.662Z,-2.87
2018-01-15T02:37:53.621Z,-2.90
2018-01-15T02:38:53.578Z,-2.92
2018-01-15T02:39:53.540Z,-2.93
2018-01-15T02:40:53.452Z,-2.99
2018-01-15T02:41:53.409Z,-2.99
2018-01-15T02:42:53.372Z,-3.11
2018-01-15T02:43:53.314Z,-3.14
2018-01-15T02:44:53.249Z,-3.33
2018-01-15T02:45:53.202Z,-3.04
2018-01-15T02:46:53.208Z,-3.10
2018-01-15T02:47:53.122Z,-3.15
2018-01-15T02:48:53.048Z,-3.05
2018-01-15T02:49:53.015Z,-2.94
2018-01-15T02:50:52.956Z,-2.96
2018-01-15T02:51:52.905Z,-2.90
2018-01-15T02:52:52.898Z,-2.74
2018-01-15T02:53:52.846Z,-2.94
2018-01-15T02:54:52.770Z,-2.90
2018-01-15T02:55:52.720Z,-2.75
2018-01-15T02:56:52.671Z,-2.86
2018-01-15T02:57:52.614Z,-2.63
2018-01-15T02:58:52.645Z,-2.71
2018-01-15T02:59:52.509Z,-2.74
2018-01-15T03:00:52.461Z,-2.92
2018-01-15T03:01:52.411Z,-2.90
2018-01-15T03:02:52.358Z,-2.79
2018-01-15T03:03:52.343Z,-2.78
2018-01-15T03:04:52.277Z,-2.75
2018-01-15T03:05:52.225Z,-2.74
2018-01-15T03:06:52.163Z,-2.87
2018-01-15T03:07:52.147Z,-2.82
2018-01-15T03:08:52.097Z,-2.92
2018-01-15T03:09:52.015Z,-2.94
2018-01-15T03:10:52.001Z,-2.94
2018-01-15T03:11:51.909Z,-3.02
2018-01-15T03:12:51.866Z,-3.13
2018-01-15T03:13:51.820Z,-3.22
2018-01-15T03:14:51.770Z,-3.23
2018-01-15T03:15:51.712Z,-3.15
2018-01-15T03:16:51.669Z,-3.22
2018-01-15T03:17:51.713Z,-3.28
2018-01-15T03:18:51.570Z,-3.26
2018-01-15T03:19:51.513Z,-3.14
2018-01-15T03:20:51.486Z,-3.15
2018-01-15T03:21:51.441Z,-3.23
2018-01-15T03:22:51.365Z,-3.29
2018-01-15T03:23:51.318Z,-3.10
2018-01-15T03:24:51.260Z,-2.94
2018-01-15T03:25:51.220Z,-2.94
2018-01-15T03:26:51.208Z,-3.17
2018-01-15T03:27:51.120Z,-3.14
2018-01-15T03:28:51.069Z,-3.05
2018-01-15T03:29:51.041Z,-2.96
2018-01-15T03:30:51.008Z,-3.04
2018-01-15T03:31:50.914Z,-2.93
2018-01-15T03:32:50.867Z,-2.93
2018-01-15T03:33:50.815Z,-2.99
2018-01-15T03:34:50.765Z,-2.97
2018-01-15T03:35:50.714Z,-2.97
2018-01-15T03:36:50.673Z,-3.00
2018-01-15T03:37:50.621Z,-3.18
2018-01-15T03:38:50.595Z,-3.11
2018-01-15T03:39:50.523Z,-2.87
2018-01-15T03:40:50.472Z,-2.90
2018-01-15T03:41:50.428Z,-2.90
2018-01-15T03:42:50.379Z,-2.92
2018-01-15T03:43:50.319Z,-2.93
2018-01-15T03:44:50.267Z,-3.11
2018-01-15T03:45:50.229Z,-3.11
2018-01-15T03:46:50.190Z,-3.22
2018-01-15T03:47:50.131Z,-3.14
2018-01-15T03:48:50.071Z,-2.92
2018-01-15T03:49:50.026Z,-2.94
2018-01-15T03:50:50.008Z,-3.05
2018-01-15T03:51:49.935Z,-3.05
2018-01-15T03:52:49.874Z,-2.93
2018-01-15T03:53:49.824Z,-3.10
2018-01-15T03:54:49.772Z,-3.26
2018-01-15T03:55:49.726Z,-3.18
2018-01-15T03:56:49.672Z,-3.18
2018-01-15T03:57:49.644Z,-3.15
2018-01-15T03:58:49.583Z,-3.11
2018-01-15T03:59:49.529Z,-2.99
2018-01-15T04:00:49.470Z,-2.93
2018-01-15T04:01:49.428Z,-2.93
2018-01-15T04:02:49.414Z,-2.96
2018-01-15T04:03:49.326Z,-3.07
2018-01-15T04:04:49.270Z,-3.04
2018-01-15T04:05:49.221Z,-2.89
2018-01-15T04:06:49.181Z,-2.89
2018-01-15T04:07:49.141Z,-2.64
2018-01-15T04:08:49.077Z,-2.03
2018-01-15T04:09:49.013Z,-2.08
2018-01-15T04:10:48.968Z,-2.18
2018-01-15T04:11:48.920Z,-2.28
2018-01-15T04:12:48.875Z,-2.33
2018-01-15T04:13:48.827Z,-1.93
2018-01-15T04:14:48.775Z,-1.78
2018-01-15T04:15:48.718Z,-1.64
2018-01-15T04:16:48.713Z,-1.31
2018-01-15T04:17:48.630Z,-1.45
2018-01-15T04:18:48.611Z,-1.51
2018-01-15T04:19:48.535Z,-1.60
2018-01-15T04:20:48.510Z,-1.39
2018-01-15T04:21:48.425Z,-1.42
2018-01-15T04:22:48.398Z,-1.48
2018-01-15T04:23:48.324Z,-1.60
2018-01-15T04:24:48.293Z,-1.78
2018-01-15T04:25:48.345Z,-1.69
2018-01-15T04:26:48.171Z,-1.78
2018-01-15T04:27:48.124Z,-1.85
2018-01-15T04:28:48.077Z,-2.00
2018-01-15T04:29:48.074Z,-1.92
2018-01-15T04:30:47.986Z,-1.95
2018-01-15T04:31:47.951Z,-1.92
2018-01-15T04:32:47.882Z,-1.77
2018-01-15T04:33:47.842Z,-1.78
2018-01-15T04:34:47.787Z,-1.75
2018-01-15T04:35:47.743Z,-1.81
2018-01-15T04:36:47.676Z,-1.80
2018-01-15T04:37:47.686Z,-1.87
2018-01-15T04:38:47.579Z,-1.99
2018-01-15T05:03:07.248Z,-1.69
2018-01-15T05:05:24.752Z,-1.21
2018-01-15T05:06:24.816Z,-0.99
2018-01-15T05:08:18.397Z,-0.54
2018-01-15T05:09:17.574Z,-0.48
2018-01-15T05:11:11.093Z,-0.39
2018-01-15T05:12:10.839Z,-0.29
2018-01-15T05:14:05.892Z,-0.44
2018-01-15T05:15:05.344Z,-0.50
2018-01-15T05:16:58.564Z,-0.51
2018-01-15T05:17:58.127Z,-0.51
2018-01-15T05:19:51.559Z,-0.57
2018-01-15T05:20:51.210Z,-0.57
2018-01-15T05:22:46.013Z,-0.47
2018-01-15T05:24:59.406Z,-0.48
2018-01-15T05:25:58.772Z,-0.51
2018-01-15T05:27:51.963Z,-0.37
2018-01-15T05:28:51.578Z,-0.22
2018-01-15T05:30:45.481Z,-0.23
2018-01-15T05:31:44.652Z,-0.27
2018-01-15T05:33:38.609Z,-0.47
2018-01-15T05:34:38.345Z,-0.52
2018-01-15T05:36:31.385Z,-0.33
2018-01-15T05:37:31.015Z,-0.50
2018-01-15T05:39:24.351Z,-0.47
2018-01-15T05:40:23.884Z,-0.54
2018-01-15T05:42:17.313Z,-0.31
2018-01-15T05:43:16.954Z,-0.48
2018-01-15T05:45:10.129Z,-0.50
2018-01-15T05:46:09.860Z,-0.54
2018-01-15T05:48:04.248Z,-0.36
2018-01-15T05:49:03.635Z,-0.39
2018-01-15T05:50:56.571Z,-0.54
2018-01-15T05:51:56.475Z,-0.50
2018-01-15T05:53:50.102Z,-0.51
2018-01-15T05:54:49.820Z,-0.59
2018-01-15T05:56:42.417Z,-0.51
2018-01-15T05:57:42.182Z,-0.52
2018-01-15T05:59:35.948Z,-0.30
2018-01-15T06:00:35.852Z,-0.51
2018-01-15T06:02:28.868Z,-0.54
2018-01-15T06:03:28.575Z,-0.65
2018-01-15T06:05:22.318Z,-0.78
2018-01-15T06:06:21.997Z,-0.73
2018-01-15T06:08:15.246Z,-0.54
2018-01-15T06:09:14.957Z,-0.52
2018-01-15T06:11:08.287Z,-0.51
2018-01-15T06:12:07.872Z,-0.37
2018-01-15T06:14:02.669Z,-0.62
2018-01-15T06:15:02.345Z,-0.62
2018-01-15T06:16:55.911Z,-0.55
2018-01-15T06:17:55.418Z,-0.60
2018-01-15T06:19:48.704Z,-0.50
2018-01-15T06:20:48.987Z,-0.52
2018-01-15T06:22:41.598Z,-0.48
2018-01-15T06:23:41.573Z,-0.55
2018-01-15T06:25:36.107Z,-0.52
2018-01-15T06:26:35.700Z,-0.48
2018-01-15T06:28:29.606Z,-0.31
2018-01-15T06:29:29.257Z,-0.42
2018-01-15T06:31:24.039Z,-0.26
2018-01-15T06:32:24.017Z,-0.26
2018-01-15T06:34:17.564Z,-0.37
2018-01-15T06:35:17.438Z,-0.37
2018-01-15T06:37:10.453Z,-0.27
2018-01-15T06:38:10.054Z,-0.27
2018-01-15T06:40:04.321Z,-0.33
2018-01-15T06:41:03.903Z,-0.42
2018-01-15T06:42:56.859Z,-0.26
2018-01-15T06:43:57.227Z,-0.33
2018-01-15T06:45:51.379Z,-0.52
2018-01-15T06:46:51.226Z,-0.51
2018-01-15T06:48:44.836Z,-0.51
2018-01-15T06:49:44.038Z,-0.18
2018-01-15T06:51:37.333Z,-0.13
2018-01-15T06:52:36.963Z,-0.27
2018-01-15T06:54:31.768Z,0.02
2018-01-15T06:55:31.627Z,-0.05
2018-01-15T06:57:24.700Z,-0.13
2018-01-15T06:58:24.403Z,-0.16
2018-01-15T07:00:17.697Z,-0.13
2018-01-15T07:01:17.554Z,-0.16
2018-01-15T07:03:10.613Z,-0.16
2018-01-15T07:04:10.560Z,-0.09
2018-01-15T07:06:03.598Z,-0.13
2018-01-15T07:07:03.084Z,-0.13
2018-01-15T07:08:57.044Z,-0.09
2018-01-15T07:09:56.623Z,-0.12
2018-01-15T07:11:50.067Z,0.09
2018-01-15T07:12:49.673Z,0.00
2018-01-15T07:14:44.512Z,0.03
2018-01-15T07:15:44.054Z,-0.08
2018-01-15T07:17:37.500Z,-0.12
2018-01-15T07:18:37.100Z,-0.15
2018-01-15T07:20:32.590Z,-0.06
2018-01-15T07:21:31.911Z,0.13
2018-01-15T07:23:24.879Z,-0.06
2018-01-15T07:24:24.780Z,0.06
2018-01-15T07:26:17.851Z,0.12
2018-01-15T07:27:17.404Z,0.24
2018-01-15T07:29:12.350Z,0.20
2018-01-15T07:30:12.026Z,0.13
2018-01-15T07:32:05.866Z,0.10
2018-01-15T07:33:05.479Z,0.18
2018-01-15T07:35:00.333Z,-0.05
2018-01-15T07:36:00.244Z,0.07
2018-01-15T07:37:53.271Z,0.21
2018-01-15T07:38:52.953Z,0.12
2018-01-15T07:40:46.271Z,0.21
2018-01-15T07:41:46.563Z,0.23
2018-01-15T07:43:39.156Z,0.33
2018-01-15T07:44:38.887Z,0.27
2018-01-15T07:46:33.591Z,0.27
2018-01-15T07:47:33.622Z,0.31
2018-01-15T07:49:26.582Z,0.34
2018-01-15T07:50:26.215Z,0.31
2018-01-15T07:52:19.687Z,0.33
2018-01-15T07:53:19.261Z,0.46
2018-01-15T07:55:12.829Z,0.52
2018-01-15T07:56:12.167Z,0.68
2018-01-15T07:58:05.925Z,0.61
2018-01-15T07:59:05.624Z,0.57
2018-01-15T08:00:59.495Z,0.48
2018-01-15T08:01:59.702Z,0.61
2018-01-15T08:03:52.348Z,0.65
2018-01-15T08:04:52.072Z,0.75
2018-01-15T08:06:45.352Z,0.53
2018-01-15T08:07:45.271Z,0.62
2018-01-15T08:09:50.475Z,0.72
2018-01-15T08:10:50.370Z,0.72
2018-01-15T08:12:43.487Z,0.67
2018-01-15T08:13:43.787Z,0.67
2018-01-15T08:15:37.928Z,0.70
2018-01-15T08:16:37.568Z,0.75
2018-01-15T08:18:31.425Z,0.78
2018-01-15T08:19:31.025Z,0.70
2018-01-15T08:21:24.364Z,0.79
2018-01-15T08:22:23.933Z,0.86
2018-01-15T08:24:17.358Z,0.78
2018-01-15T08:25:17.203Z,0.86
2018-01-15T08:27:10.767Z,0.76
2018-01-15T08:28:10.390Z,0.83
2018-01-15T08:30:06.003Z,1.00
2018-01-15T08:31:05.175Z,1.00
2018-01-15T08:32:58.146Z,1.01
2018-01-15T08:33:58.193Z,1.04
2018-01-15T08:35:51.712Z,1.07
2018-01-15T08:36:51.370Z,1.08
2018-01-15T08:38:45.116Z,1.18
2018-01-15T08:39:45.148Z,1.21
2018-01-15T08:41:38.076Z,1.22
2018-01-15T08:42:38.026Z,1.16
2018-01-15T08:44:32.883Z,1.34
2018-01-15T08:45:32.477Z,1.28
2018-01-15T08:47:25.999Z,1.42
2018-01-15T08:48:25.670Z,1.36
2018-01-15T08:50:19.454Z,1.32
2018-01-15T08:51:19.149Z,1.25
2018-01-15T08:53:14.046Z,1.37
2018-01-15T08:54:13.912Z,1.43
2018-01-15T08:56:07.451Z,1.42
2018-01-15T08:57:07.377Z,1.50
2018-01-15T08:59:12.548Z,1.55
2018-01-15T09:00:12.517Z,1.57
2018-01-15T09:02:05.578Z,1.80
2018-01-15T09:03:05.102Z,1.89
2018-01-15T09:04:59.992Z,1.97
2018-01-15T09:05:59.581Z,1.97
2018-01-15T09:07:53.498Z,2.15
2018-01-15T09:08:53.054Z,2.19
2018-01-15T09:10:46.965Z,2.51
2018-01-15T09:11:46.509Z,2.71
2018-01-15T09:13:39.863Z,2.79
2018-01-15T09:14:39.456Z,2.84
2018-01-15T09:16:32.894Z,2.63
2018-01-15T09:17:32.742Z,2.64
2018-01-15T09:19:27.279Z,3.20
2018-01-15T09:20:27.232Z,3.42
2018-01-15T09:22:20.794Z,3.67
2018-01-15T09:23:20.683Z,4.28
2018-01-15T09:25:15.230Z,4.06
2018-01-15T09:26:14.876Z,4.29
2018-01-15T09:28:08.855Z,4.69
2018-01-15T09:29:08.672Z,3.96
2018-01-15T09:31:01.699Z,4.46
2018-01-15T09:32:01.305Z,4.67
2018-01-15T09:33:55.172Z,4.94
2018-01-15T09:34:55.040Z,5.23
2018-01-15T09:36:49.636Z,5.32
2018-01-15T09:37:49.261Z,5.37
2018-01-15T09:39:42.608Z,5.25
2018-01-15T09:40:42.565Z,4.99
2018-01-15T09:42:35.507Z,5.04
2018-01-15T09:43:35.167Z,5.01
2018-01-15T09:45:28.489Z,5.04
2018-01-15T09:46:28.161Z,4.83
2018-01-15T09:48:23.078Z,5.31
2018-01-15T09:49:23.103Z,5.16
2018-01-15T09:51:16.682Z,5.37
2018-01-15T09:52:16.327Z,5.77
2018-01-15T09:54:09.734Z,5.49
2018-01-15T09:55:09.362Z,5.68
2018-01-15T09:57:04.379Z,5.82
2018-01-15T09:58:04.258Z,5.67
2018-01-15T09:59:57.950Z,6.07
2018-01-15T10:00:57.902Z,5.67
2018-01-15T10:01:57.852Z,5.88
2018-01-15T10:02:57.788Z,5.66
2018-01-15T10:03:57.739Z,5.40
2018-01-15T10:04:57.833Z,5.45
2018-01-15T10:05:57.378Z,5.27
2018-01-15T10:06:57.635Z,5.48
2018-01-15T10:07:57.629Z,5.50
2018-01-15T10:08:57.616Z,5.85
2018-01-15T10:09:57.561Z,5.73
2018-01-15T10:10:57.740Z,5.75
2018-01-15T10:11:57.545Z,5.49
2018-01-15T10:12:57.440Z,5.48
2018-01-15T10:13:57.447Z,5.71
2018-01-15T10:14:57.446Z,6.00
2018-01-15T10:15:57.398Z,6.09
2018-01-15T10:16:57.311Z,6.36
2018-01-15T10:17:57.314Z,6.36
2018-01-15T10:18:57.248Z,5.70
2018-01-15T10:19:57.201Z,5.91
2018-01-15T10:20:57.249Z,6.11
2018-01-15T10:21:57.175Z,6.95
2018-01-15T10:22:56.800Z,6.72
2018-01-15T10:23:57.089Z,6.11
2018-01-15T10:24:56.711Z,6.19
2018-01-15T10:25:56.714Z,5.89
2018-01-15T10:26:56.664Z,5.98
2018-01-15T10:27:56.702Z,6.53
2018-01-15T10:28:56.996Z,6.44
2018-01-15T10:29:56.945Z,6.47
2018-01-15T10:30:56.882Z,6.65
2018-01-15T10:31:56.858Z,7.01
2018-01-15T10:32:57.251Z,6.95
2018-01-15T10:33:56.765Z,6.71
2018-01-15T10:34:56.761Z,6.71
2018-01-15T10:35:56.774Z,6.54
2018-01-15T10:36:56.675Z,7.02
2018-01-15T10:37:56.422Z,6.36
2018-01-15T10:38:56.669Z,5.93
2018-01-15T10:39:56.555Z,5.96
2018-01-15T10:40:56.588Z,6.09
2018-01-15T10:41:56.611Z,5.88
2018-01-15T10:42:56.501Z,5.85
2018-01-15T10:43:56.534Z,6.61
2018-01-15T10:44:56.470Z,7.09
2018-01-15T10:45:56.390Z,6.62
2018-01-15T10:46:56.402Z,7.34
2018-01-15T10:47:56.372Z,7.23
2018-01-15T10:48:56.020Z,6.99
2018-01-15T10:49:56.372Z,6.43
2018-01-15T10:50:56.291Z,6.48
2018-01-15T10:51:56.266Z,6.50
2018-01-15T10:52:56.233Z,6.72
2018-01-15T10:53:56.225Z,6.50
2018-01-15T10:54:56.110Z,6.41
2018-01-15T10:55:56.103Z,6.41
2018-01-15T10:56:56.138Z,6.29
2018-01-15T10:57:56.118Z,5.93
2018-01-15T10:58:55.983Z,5.85
2018-01-15T10:59:56.019Z,6.11
2018-01-15T11:00:55.924Z,6.46
2018-01-15T11:01:55.926Z,6.89
2018-01-15T11:02:55.919Z,6.89
2018-01-15T11:03:56.370Z,7.42
2018-01-15T11:04:55.807Z,7.45
2018-01-15T11:05:55.806Z,6.65
2018-01-15T11:06:55.497Z,6.63
2018-01-15T11:07:55.793Z,6.63
2018-01-15T11:08:55.774Z,7.04
2018-01-15T11:09:55.674Z,7.29
2018-01-15T11:10:55.668Z,6.86
2018-01-15T11:11:55.604Z,6.77
2018-01-15T11:12:55.625Z,6.35
2018-01-15T11:13:55.508Z,6.94
2018-01-15T11:14:55.544Z,6.77
2018-01-15T11:15:55.563Z,6.56
2018-01-15T11:16:55.484Z,6.50
2018-01-15T11:17:55.440Z,6.25
2018-01-15T11:18:55.388Z,6.14
2018-01-15T11:19:55.446Z,6.41
2018-01-15T11:20:55.390Z,6.76
2018-01-15T11:21:55.303Z,6.41
2018-01-15T11:22:55.030Z,6.35
2018-01-15T11:23:55.257Z,6.41
2018-01-15T11:24:55.222Z,6.06
2018-01-15T11:25:55.190Z,6.38
2018-01-15T11:26:55.206Z,6.87
2018-01-15T11:27:55.123Z,6.62
2018-01-15T11:28:55.108Z,6.16
2018-01-15T11:29:55.040Z,6.38
2018-01-15T11:30:55.085Z,6.47
2018-01-15T11:31:55.050Z,6.71
2018-01-15T11:32:54.980Z,6.72
2018-01-15T11:33:54.642Z,6.72
2018-01-15T11:34:54.876Z,6.73
2018-01-15T11:35:54.865Z,6.25
2018-01-15T11:36:54.888Z,6.04
2018-01-15T11:37:54.857Z,6.41
2018-01-15T11:38:54.800Z,6.44
2018-01-15T11:39:54.729Z,6.25
2018-01-15T11:40:54.724Z,6.65
2018-01-15T11:41:54.686Z,6.86
2018-01-15T11:42:54.717Z,6.54
2018-01-15T11:43:54.656Z,6.72
2018-01-15T11:44:54.622Z,6.43
2018-01-15T11:45:54.572Z,6.69
2018-01-15T11:46:54.210Z,6.84
2018-01-15T11:47:54.490Z,7.15
2018-01-15T11:48:54.493Z,6.89
2018-01-15T11:49:54.479Z,6.63
2018-01-15T11:50:54.366Z,6.53
2018-01-15T11:51:54.362Z,6.50
2018-01-15T11:52:54.397Z,5.70
2018-01-15T11:53:54.332Z,5.78
2018-01-15T11:54:54.281Z,6.04
2018-01-15T11:55:54.275Z,6.46
2018-01-15T11:56:54.250Z,6.36
2018-01-15T11:57:54.231Z,6.48
2018-01-15T11:58:54.149Z,6.50
2018-01-15T11:59:54.122Z,6.51
2018-01-15T12:00:54.170Z,6.33
2018-01-15T12:01:54.099Z,6.53
2018-01-15T12:02:53.761Z,6.44
2018-01-15T12:03:53.987Z,6.21
2018-01-15T12:04:53.980Z,6.36
2018-01-15T12:05:54.016Z,6.16
2018-01-15T12:06:53.894Z,6.30
2018-01-15T12:07:53.949Z,6.44
2018-01-15T12:08:53.827Z,6.16
2018-01-15T12:09:53.771Z,6.48
2018-01-15T12:10:53.768Z,6.46
2018-01-15T12:11:53.690Z,6.14
2018-01-15T12:12:53.699Z,6.36
2018-01-15T12:13:53.636Z,6.33
2018-01-15T12:14:53.573Z,6.14
2018-01-15T12:15:53.621Z,6.38
2018-01-15T12:16:53.595Z,6.43
2018-01-15T12:17:53.553Z,6.19
2018-01-15T12:18:53.180Z,6.00
2018-01-15T12:19:53.541Z,6.04
2018-01-15T12:20:53.436Z,6.07
2018-01-15T12:21:53.389Z,5.82
2018-01-15T12:22:53.392Z,5.40
2018-01-15T12:23:53.307Z,5.07
2018-01-15T12:24:53.258Z,4.86
2018-01-15T12:25:53.259Z,4.51
2018-01-15T12:26:53.210Z,4.61
2018-01-15T12:27:53.239Z,4.75
2018-01-15T12:28:53.129Z,4.76
2018-01-15T12:29:53.095Z,4.50
2018-01-15T12:30:53.069Z,4.40
2018-01-15T12:31:53.033Z,4.28
2018-01-15T12:32:53.007Z,4.18
2018-01-15T12:33:52.657Z,4.01
2018-01-15T12:34:52.961Z,3.98
2018-01-15T12:35:52.551Z,3.86
2018-01-15T12:36:52.492Z,3.94
2018-01-15T12:37:52.461Z,3.82
2018-01-15T12:38:52.435Z,3.80
2018-01-15T12:39:52.441Z,3.92
2018-01-15T12:40:52.347Z,3.96
2018-01-15T12:41:52.311Z,3.94
2018-01-15T12:42:52.269Z,3.97
2018-01-15T12:43:52.243Z,3.96
2018-01-15T12:44:52.168Z,4.00
2018-01-15T12:45:52.159Z,3.88
2018-01-15T12:46:52.137Z,4.01
2018-01-15T12:47:52.059Z,4.01
2018-01-15T12:48:52.044Z,4.07
2018-01-15T12:49:51.983Z,4.19
2018-01-15T12:50:51.939Z,4.04
2018-01-15T12:51:51.912Z,4.10
2018-01-15T12:52:51.882Z,4.25
2018-01-15T12:53:51.822Z,4.29
2018-01-15T12:54:51.773Z,4.28
2018-01-15T12:55:51.736Z,4.29
2018-01-15T12:56:51.700Z,4.34
2018-01-15T12:57:51.670Z,4.28
2018-01-15T12:58:51.646Z,4.33
2018-01-15T12:59:51.590Z,4.34
2018-01-15T13:00:51.526Z,4.33
2018-01-15T13:01:51.480Z,4.33
2018-01-15T13:02:51.437Z,4.40
2018-01-15T13:03:51.387Z,4.39
2018-01-15T13:04:51.356Z,4.36
2018-01-15T13:05:51.323Z,4.18
2018-01-15T13:06:51.285Z,4.19
2018-01-15T13:07:51.224Z,4.14
2018-01-15T13:08:51.185Z,4.18
2018-01-15T13:09:51.135Z,4.15
2018-01-15T13:10:51.107Z,4.19
2018-01-15T13:11:51.092Z,4.16
2018-01-15T13:12:51.018Z,4.22
2018-01-15T13:13:50.977Z,4.10
2018-01-15T13:14:50.938Z,4.07
2018-01-15T13:15:50.897Z,4.14
2018-01-15T13:16:50.854Z,4.16
2018-01-15T13:17:50.795Z,4.16
2018-01-15T13:18:50.756Z,4.07
2018-01-15T13:19:50.729Z,4.04
2018-01-15T13:20:50.678Z,4.16
2018-01-15T13:21:50.625Z,4.12
2018-01-15T13:22:50.596Z,4.16
2018-01-15T13:23:50.558Z,4.00
2018-01-15T13:24:50.517Z,4.15
2018-01-15T13:25:50.465Z,4.12
2018-01-15T13:26:50.413Z,4.07
2018-01-15T13:27:50.384Z,4.16
2018-01-15T13:28:50.323Z,4.18
2018-01-15T13:29:50.292Z,4.18
2018-01-15T13:30:50.240Z,4.25
2018-01-15T13:31:50.249Z,4.19
2018-01-15T13:32:50.176Z,4.16
2018-01-15T13:33:50.134Z,4.15
2018-01-15T13:34:50.090Z,4.19
2018-01-15T13:35:50.041Z,4.12
2018-01-15T13:36:49.993Z,4.15
2018-01-15T13:37:49.978Z,4.15
2018-01-15T13:38:49.954Z,4.00
2018-01-15T13:39:49.870Z,4.04
2018-01-15T13:40:49.820Z,4.00
2018-01-15T13:41:49.775Z,3.89
2018-01-15T13:42:49.725Z,4.00
2018-01-15T13:43:49.685Z,3.96
2018-01-15T13:44:49.646Z,3.96
2018-01-15T13:45:49.613Z,4.01
2018-01-15T13:46:49.573Z,3.79
2018-01-15T13:47:49.510Z,3.92
2018-01-15T13:48:49.682Z,3.96
2018-01-15T13:49:49.431Z,3.80
2018-01-15T13:50:49.381Z,3.97
2018-01-15T13:51:49.398Z,3.98
2018-01-15T13:52:49.280Z,3.85
2018-01-15T13:53:49.270Z,3.88
2018-01-15T13:54:49.209Z,3.86
2018-01-15T13:55:49.163Z,3.78
2018-01-15T13:56:49.118Z,3.82
2018-01-15T13:57:49.062Z,3.78
2018-01-15T13:58:49.016Z,3.76
2018-01-15T13:59:48.978Z,3.79
2018-01-15T14:00:48.939Z,3.85
2018-01-15T14:02:48.861Z,3.86
2018-01-15T14:03:48.810Z,3.80
2018-01-15T14:04:48.766Z,3.75
2018-01-15T14:05:48.716Z,3.79
2018-01-15T14:06:48.667Z,3.83
2018-01-15T14:07:48.648Z,3.90
2018-01-15T14:08:48.578Z,3.94
2018-01-15T14:09:48.561Z,3.92
2018-01-15T14:10:48.492Z,3.96
2018-01-15T14:11:48.447Z,3.96
2018-01-15T14:12:48.417Z,3.96
2018-01-15T14:13:48.363Z,3.94
2018-01-15T14:14:48.314Z,3.96
2018-01-15T14:15:48.276Z,3.96
2018-01-15T14:16:48.226Z,3.98
2018-01-15T14:17:48.190Z,4.07
2018-01-15T14:18:48.147Z,3.98
2018-01-15T14:19:48.084Z,4.07
2018-01-15T14:20:48.044Z,4.00
2018-01-15T14:21:48.004Z,4.00
2018-01-15T14:22:47.967Z,4.03
2018-01-15T14:23:47.932Z,3.94
2018-01-15T14:24:47.879Z,4.00
2018-01-15T14:25:47.825Z,3.96
2018-01-15T14:26:47.781Z,3.89
2018-01-15T14:27:47.749Z,3.97
2018-01-15T14:28:47.709Z,3.98
2018-01-15T14:29:47.654Z,3.82
2018-01-15T14:30:47.628Z,3.96
2018-01-15T14:31:47.563Z,4.01
2018-01-15T14:32:47.523Z,4.01
2018-01-15T14:33:47.521Z,4.06
2018-01-15T14:34:47.447Z,4.00
2018-01-15T14:35:47.397Z,4.06
2018-01-15T14:36:47.343Z,4.03
2018-01-15T14:37:47.305Z,4.04
2018-01-15T14:38:47.260Z,4.01
2018-01-15T14:39:47.227Z,4.00
2018-01-15T14:40:47.196Z,4.03
2018-01-15T14:41:47.124Z,4.06
2018-01-15T14:42:47.084Z,4.01
2018-01-15T14:43:47.059Z,3.89
2018-01-15T14:44:47.044Z,4.01
2018-01-15T14:45:46.938Z,4.01
2018-01-15T14:46:46.918Z,3.90
2018-01-15T14:47:46.844Z,3.98
2018-01-15T14:48:46.843Z,3.94
2018-01-15T14:49:46.755Z,3.97
2018-01-15T14:50:46.720Z,3.96
2018-01-15T14:51:46.677Z,3.86
2018-01-15T14:52:46.640Z,3.94
2018-01-15T14:53:46.600Z,3.86
2018-01-15T14:54:46.543Z,3.79
2018-01-15T14:55:46.513Z,3.88
2018-01-15T14:56:46.470Z,3.78
2018-01-15T14:57:46.403Z,3.76
2018-01-15T14:58:46.402Z,3.86
2018-01-15T14:59:46.315Z,3.79
2018-01-15T15:00:46.276Z,3.82
2018-01-15T15:01:46.234Z,3.86
2018-01-15T15:02:46.211Z,3.86
2018-01-15T15:03:46.156Z,3.75